Time;durP1;ratioP1;P1;durP2;ratioP2;P2;SDS_P1;SDS_P2;PMS_P1;PMS_P2;Temp;Humidity;BMP_temperature;BMP_pressure;BME280_temperature;BME280_humidity;BME280_pressure;Samples;Min_cycle;Max_cycle;Signal;HPM_P1;HPM_P2
2022/11/29 00:01:37;;;;;;;8.50;7.80;;;20.10;65.70;;;;;;5006736;28;20852;-68
2022/11/29 00:04:06;;;;;;;7.87;7.17;;;20.10;65.70;;;;;;5003178;28;20493;-68
2022/11/29 00:06:35;;;;;;;8.13;7.43;;;20.10;65.70;;;;;;5003358;28;20466;-69
2022/11/29 00:09:06;;;;;;;7.97;7.37;;;20.10;65.60;;;;;;4999088;28;20829;-70
2022/11/29 00:14:27;;;;;;;8.47;7.67;;;20.10;65.60;;;;;;4970382;28;20489;-71
2022/11/29 00:16:58;;;;;;;7.43;6.83;;;20.10;65.60;;;;;;5002278;28;20464;-73
2022/11/29 00:19:26;;;;;;;7.07;6.47;;;20.10;65.50;;;;;;5006768;28;20858;-68
2022/11/29 00:21:54;;;;;;;8.47;7.67;;;20.10;65.50;;;;;;5000471;28;20464;-68
2022/11/29 00:24:22;;;;;;;8.47;7.77;;;20.10;65.50;;;;;;5012353;28;20502;-68
2022/11/29 00:26:52;;;;;;;7.57;6.87;;;20.10;65.40;;;;;;5003867;28;20467;-70
2022/11/29 00:29:20;;;;;;;8.10;7.30;;;20.10;65.30;;;;;;5008115;28;20569;-70
2022/11/29 00:31:48;;;;;;;7.83;7.13;;;20.10;65.40;;;;;;5009737;28;20478;-68
2022/11/29 00:34:16;;;;;;;8.27;7.47;;;20.10;65.30;;;;;;5005583;28;20461;-69
2022/11/29 00:36:45;;;;;;;8.00;7.30;;;20.10;65.30;;;;;;5012016;28;20465;-69
2022/11/29 00:39:15;;;;;;;7.87;7.17;;;20.10;65.20;;;;;;5008823;28;20484;-69
2022/11/29 00:41:43;;;;;;;7.73;7.13;;;20.10;65.30;;;;;;5006173;28;20557;-69
2022/11/29 00:44:12;;;;;;;7.60;6.97;;;20.10;65.20;;;;;;5011657;28;20461;-68
2022/11/29 00:46:47;;;;;;;7.23;6.53;;;20.10;65.20;;;;;;5006119;28;20501;-72
2022/11/29 00:49:15;;;;;;;6.97;6.30;;;20.10;65.20;;;;;;5006153;28;20566;-71
2022/11/29 00:51:43;;;;;;;7.47;6.80;;;20.10;65.20;;;;;;5007207;28;20484;-69
2022/11/29 00:54:12;;;;;;;7.70;7.00;;;20.10;65.20;;;;;;5007926;28;20557;-69
2022/11/29 00:56:40;;;;;;;7.10;6.50;;;20.10;65.10;;;;;;5008558;28;20458;-69
2022/11/29 00:59:08;;;;;;;7.50;6.80;;;20.10;65.00;;;;;;5003959;28;20463;-68
2022/11/29 01:01:37;;;;;;;7.53;6.93;;;20.10;65.20;;;;;;5001389;28;20969;-69
2022/11/29 01:04:06;;;;;;;7.30;6.67;;;20.10;65.10;;;;;;5004555;28;20469;-68
2022/11/29 01:06:34;;;;;;;7.13;6.53;;;20.10;65.00;;;;;;5010381;28;20465;-68
2022/11/29 01:09:02;;;;;;;7.80;7.10;;;20.10;65.00;;;;;;5005833;28;20473;-69
2022/11/29 01:11:30;;;;;;;7.47;6.77;;;20.10;64.90;;;;;;4990311;28;20937;-73
2022/11/29 01:14:00;;;;;;;8.50;7.90;;;20.10;65.00;;;;;;5001904;28;20459;-71
2022/11/29 01:16:30;;;;;;;7.50;6.80;;;20.10;64.90;;;;;;5005578;28;20451;-68
2022/11/29 01:19:00;;;;;;;7.07;6.47;;;20.10;64.90;;;;;;5009885;28;20467;-69
2022/11/29 01:21:29;;;;;;;7.80;7.10;;;20.10;64.90;;;;;;5009896;28;20893;-70
2022/11/29 01:23:57;;;;;;;7.13;6.53;;;20.10;64.90;;;;;;5007976;28;20506;-68
2022/11/29 01:26:27;;;;;;;6.90;6.40;;;20.10;64.80;;;;;;5000945;28;20558;-69
2022/11/29 01:28:57;;;;;;;7.13;6.63;;;20.10;64.90;;;;;;5005040;28;20457;-70
2022/11/29 01:31:27;;;;;;;8.47;7.77;;;20.10;64.80;;;;;;5008510;28;20964;-69
2022/11/29 01:33:55;;;;;;;8.20;7.50;;;20.10;64.80;;;;;;5005060;28;20464;-68
2022/11/29 01:36:25;;;;;;;7.40;6.80;;;20.10;64.80;;;;;;5010976;28;20500;-68
2022/11/29 01:38:54;;;;;;;6.70;5.77;;;20.10;64.70;;;;;;5005370;28;20505;-69
2022/11/29 01:41:27;;;;;;;6.70;6.10;;;20.10;64.70;;;;;;5008755;28;20458;-68
2022/11/29 01:44:02;;;;;;;7.43;6.83;;;20.10;64.70;;;;;;5001732;28;20518;-69
2022/11/29 01:46:32;;;;;;;7.17;6.60;;;20.10;64.70;;;;;;5004018;28;20483;-70
2022/11/29 01:49:04;;;;;;;7.40;6.80;;;20.10;64.70;;;;;;5001322;28;20478;-68
2022/11/29 01:51:35;;;;;;;7.00;6.40;;;20.10;64.60;;;;;;5007350;28;20557;-70
2022/11/29 01:54:04;;;;;;;6.93;6.33;;;20.10;64.60;;;;;;5001278;28;20564;-69
2022/11/29 01:56:34;;;;;;;6.53;6.03;;;20.10;64.70;;;;;;5006332;28;20462;-69
2022/11/29 01:59:06;;;;;;;7.20;6.60;;;20.10;64.60;;;;;;5002598;28;20470;-73
2022/11/29 02:01:35;;;;;;;6.83;6.13;;;20.10;64.60;;;;;;5005606;28;20491;-70
2022/11/29 02:04:04;;;;;;;6.87;6.27;;;20.10;64.70;;;;;;5006636;28;20471;-69
2022/11/29 02:06:35;;;;;;;7.67;7.07;;;20.10;64.60;;;;;;5006079;28;20547;-69
2022/11/29 02:09:04;;;;;;;7.53;6.83;;;20.10;64.60;;;;;;5003877;28;20584;-68
2022/11/29 02:11:56;;;;;;;6.83;6.33;;;20.10;64.60;;;;;;5007053;28;20467;-68
2022/11/29 02:14:45;;;;;;;7.70;7.10;;;20.10;64.60;;;;;;5008504;28;20461;-68
2022/11/29 02:17:24;;;;;;;6.93;6.33;;;20.10;64.60;;;;;;5006402;28;20838;-70
2022/11/29 02:20:19;;;;;;;8.03;7.37;;;20.10;64.60;;;;;;5007524;28;20548;-71
2022/11/29 02:22:56;;;;;;;7.90;7.17;;;20.10;64.60;;;;;;5001903;28;20574;-69
2022/11/29 02:25:43;;;;;;;7.17;6.67;;;20.10;64.60;;;;;;5001716;28;20954;-68
2022/11/29 02:28:54;;;;;;;6.33;5.83;;;20.10;64.60;;;;;;5002713;28;20790;-71
2022/11/29 02:31:55;;;;;;;7.43;6.83;;;20.10;64.50;;;;;;5006914;28;20553;-68
2022/11/29 02:34:56;;;;;;;7.60;6.90;;;20.10;64.50;;;;;;5006531;28;20826;-69
2022/11/29 02:37:46;;;;;;;7.40;6.80;;;20.10;64.50;;;;;;4995875;28;20460;-70
2022/11/29 02:40:48;;;;;;;6.93;6.43;;;20.10;64.50;;;;;;5005397;28;20581;-69
2022/11/29 02:43:36;;;;;;;7.20;6.60;;;20.10;64.50;;;;;;5001498;28;20514;-68
2022/11/29 02:46:21;;;;;;;6.70;6.17;;;20.10;64.50;;;;;;5004866;28;20496;-69
2022/11/29 02:48:57;;;;;;;7.30;6.80;;;20.10;64.50;;;;;;5006956;28;20514;-68
2022/11/29 02:51:34;;;;;;;7.33;6.73;;;20.10;64.50;;;;;;5007624;28;22031;-70
2022/11/29 02:54:08;;;;;;;6.63;6.13;;;20.10;64.50;;;;;;5004151;28;20575;-68
2022/11/29 02:56:43;;;;;;;7.30;6.67;;;20.10;64.50;;;;;;5005736;28;20474;-72
2022/11/29 02:59:17;;;;;;;7.20;6.63;;;20.10;64.40;;;;;;5000010;28;20970;-69
2022/11/29 03:01:53;;;;;;;6.90;6.20;;;20.10;64.40;;;;;;5005896;28;20596;-72
2022/11/29 03:04:31;;;;;;;6.60;6.10;;;20.10;64.40;;;;;;5003074;28;20512;-69
2022/11/29 03:07:05;;;;;;;6.67;6.17;;;20.10;64.40;;;;;;5002631;28;20514;-68
2022/11/29 03:09:41;;;;;;;8.10;7.40;;;20.10;64.40;;;;;;5000422;28;20463;-68
2022/11/29 03:12:19;;;;;;;6.50;6.00;;;20.10;64.40;;;;;;5007016;28;20569;-68
2022/11/29 03:14:56;;;;;;;6.10;5.63;;;20.10;64.40;;;;;;5008381;28;20590;-68
2022/11/29 03:17:39;;;;;;;7.90;7.20;;;20.10;64.40;;;;;;5000105;28;20588;-68
2022/11/29 03:20:22;;;;;;;6.47;5.97;;;20.10;64.30;;;;;;5001403;28;20816;-69
2022/11/29 03:23:13;;;;;;;6.87;6.37;;;20.10;64.40;;;;;;5005359;28;20502;-71
2022/11/29 03:25:46;;;;;;;6.63;6.13;;;20.10;64.30;;;;;;5006554;28;20502;-70
2022/11/29 03:28:18;;;;;;;6.43;5.93;;;20.00;64.30;;;;;;5002752;28;20507;-69
2022/11/29 03:30:53;;;;;;;7.70;7.00;;;20.00;64.30;;;;;;5002544;28;20545;-69
2022/11/29 03:33:27;;;;;;;6.90;6.40;;;20.10;64.30;;;;;;5006747;28;20482;-68
2022/11/29 03:36:04;;;;;;;6.67;6.07;;;20.10;64.20;;;;;;5003879;28;20492;-69
2022/11/29 03:38:39;;;;;;;6.77;6.17;;;20.00;64.20;;;;;;5006059;28;20565;-69
2022/11/29 03:41:20;;;;;;;6.73;6.23;;;20.00;64.30;;;;;;5006791;28;20562;-71
2022/11/29 03:43:55;;;;;;;7.20;6.60;;;20.00;64.30;;;;;;4988357;28;20487;-69
2022/11/29 03:46:30;;;;;;;7.20;6.70;;;20.00;64.30;;;;;;5006859;28;20515;-69
2022/11/29 03:49:03;;;;;;;7.50;6.90;;;20.00;64.30;;;;;;5004675;28;20489;-71
2022/11/29 03:51:43;;;;;;;6.67;6.10;;;20.00;64.30;;;;;;5004601;28;20458;-68
2022/11/29 03:54:17;;;;;;;7.00;6.40;;;20.00;64.30;;;;;;5006371;28;20833;-69
2022/11/29 03:56:46;;;;;;;6.97;6.47;;;20.00;64.30;;;;;;5006410;28;20986;-71
2022/11/29 03:59:28;;;;;;;6.20;5.80;;;20.00;64.30;;;;;;5008670;28;20949;-69
2022/11/29 04:02:10;;;;;;;6.73;6.23;;;20.00;64.20;;;;;;5009496;28;20457;-70
2022/11/29 04:05:11;;;;;;;6.40;5.83;;;20.00;64.30;;;;;;5005193;28;20461;-68
2022/11/29 04:08:00;;;;;;;6.80;6.30;;;20.00;64.20;;;;;;5007062;28;20556;-69
2022/11/29 04:10:57;;;;;;;6.20;5.70;;;20.00;64.30;;;;;;5006116;28;20476;-69
2022/11/29 04:13:52;;;;;;;6.47;5.90;;;20.00;64.30;;;;;;5008989;28;20476;-71
2022/11/29 04:17:04;;;;;;;6.63;6.10;;;20.00;64.30;;;;;;5004756;28;20462;-68
2022/11/29 04:19:58;;;;;;;6.60;6.10;;;20.00;64.30;;;;;;5006228;28;20559;-68
2022/11/29 04:22:55;;;;;;;6.60;6.10;;;20.00;64.20;;;;;;5006645;28;20462;-71
2022/11/29 04:25:48;;;;;;;6.40;5.90;;;20.00;64.20;;;;;;5004732;28;20489;-69
2022/11/29 04:28:38;;;;;;;6.60;5.90;;;20.00;64.20;;;;;;5010621;28;20474;-69
2022/11/29 04:31:17;;;;;;;6.87;6.37;;;20.00;64.20;;;;;;5005230;28;20568;-70
2022/11/29 04:34:18;;;;;;;6.83;6.33;;;20.00;64.20;;;;;;5007669;28;20648;-70
2022/11/29 04:37:07;;;;;;;6.20;5.70;;;20.00;64.20;;;;;;5011896;28;20980;-69
2022/11/29 04:39:58;;;;;;;6.43;5.93;;;20.00;64.10;;;;;;5010901;28;21016;-68
2022/11/29 04:42:52;;;;;;;6.27;5.87;;;20.10;64.20;;;;;;5008656;28;20462;-69
2022/11/29 04:46:04;;;;;;;6.60;6.10;;;20.00;64.10;;;;;;5004865;28;20477;-69
2022/11/29 04:49:02;;;;;;;6.10;5.70;;;20.10;64.20;;;;;;4995422;28;20497;-68
2022/11/29 04:51:48;;;;;;;6.27;5.83;;;20.10;64.10;;;;;;5005009;28;20497;-69
2022/11/29 04:54:25;;;;;;;7.27;6.67;;;20.00;64.10;;;;;;5009697;28;20568;-72
2022/11/29 04:56:57;;;;;;;6.20;5.70;;;20.00;64.10;;;;;;5002755;28;20475;-69
2022/11/29 04:59:32;;;;;;;6.33;5.83;;;20.10;64.10;;;;;;5002462;28;20950;-74
2022/11/29 05:02:09;;;;;;;6.30;5.90;;;20.10;64.10;;;;;;5010244;28;20476;-69
2022/11/29 05:04:48;;;;;;;6.33;5.83;;;20.10;64.00;;;;;;5011414;28;20457;-68
2022/11/29 05:07:29;;;;;;;6.50;6.00;;;20.10;64.00;;;;;;5008758;28;20472;-68
2022/11/29 05:10:06;;;;;;;5.80;5.40;;;20.10;64.00;;;;;;5006410;28;20556;-68
2022/11/29 05:12:41;;;;;;;6.37;5.80;;;20.10;64.00;;;;;;5007467;28;20482;-68
2022/11/29 05:15:39;;;;;;;7.07;6.47;;;20.10;64.00;;;;;;4989871;28;20473;-71
2022/11/29 05:18:17;;;;;;;6.83;6.23;;;20.10;64.00;;;;;;5008521;28;20494;-70
2022/11/29 05:20:52;;;;;;;6.80;6.30;;;20.10;64.00;;;;;;5006750;28;20489;-71
2022/11/29 05:23:34;;;;;;;6.70;6.00;;;20.10;64.00;;;;;;5009097;28;20518;-68
2022/11/29 05:26:09;;;;;;;6.23;5.83;;;20.10;64.00;;;;;;5008269;28;20459;-68
2022/11/29 05:28:46;;;;;;;6.17;5.67;;;20.10;63.90;;;;;;5009350;28;20467;-68
2022/11/29 05:31:29;;;;;;;6.03;5.63;;;20.10;63.90;;;;;;5004478;28;20459;-68
2022/11/29 05:34:22;;;;;;;6.70;5.93;;;20.00;63.90;;;;;;5001766;28;20466;-69
2022/11/29 05:37:01;;;;;;;6.70;6.10;;;20.00;63.80;;;;;;5004636;28;20863;-69
2022/11/29 05:39:42;;;;;;;5.27;4.87;;;20.10;63.80;;;;;;5007610;28;20463;-69
2022/11/29 05:42:33;;;;;;;8.67;5.40;;;20.10;64.30;;;;;;5001105;28;20471;-69
2022/11/29 05:45:07;;;;;;;6.77;6.13;;;20.00;64.80;;;;;;5000268;28;21004;-69
2022/11/29 05:47:46;;;;;;;5.50;5.00;;;20.10;65.30;;;;;;5001647;28;20889;-69
2022/11/29 05:50:21;;;;;;;6.83;6.20;;;20.10;65.60;;;;;;4997604;28;20554;-71
2022/11/29 05:52:56;;;;;;;5.80;5.30;;;20.10;65.70;;;;;;4984285;28;20469;-69
2022/11/29 05:55:40;;;;;;;7.60;5.87;;;20.10;65.70;;;;;;5003664;28;20489;-69
2022/11/29 05:58:16;;;;;;;7.50;6.20;;;20.10;65.70;;;;;;5010328;28;20456;-70
2022/11/29 06:00:49;;;;;;;6.23;5.50;;;20.10;65.70;;;;;;5002599;28;20556;-69
2022/11/29 06:03:29;;;;;;;6.30;5.90;;;20.10;65.80;;;;;;5004459;28;21345;-69
2022/11/29 06:06:01;;;;;;;5.37;4.80;;;20.10;65.90;;;;;;5006454;28;20464;-72
2022/11/29 06:08:37;;;;;;;5.73;5.13;;;20.10;65.90;;;;;;4999625;28;20519;-70
2022/11/29 06:11:13;;;;;;;5.53;5.00;;;20.10;66.10;;;;;;5005508;28;20550;-70
2022/11/29 06:13:59;;;;;;;5.63;5.20;;;20.10;66.00;;;;;;5007492;28;20533;-71
2022/11/29 06:16:52;;;;;;;9.93;5.00;;;20.10;66.00;;;;;;5003845;28;20559;-70
2022/11/29 06:19:49;;;;;;;11.33;6.10;;;20.10;66.20;;;;;;5002424;28;21376;-69
2022/11/29 06:22:44;;;;;;;6.30;5.70;;;20.10;66.30;;;;;;4999557;28;20475;-70
2022/11/29 06:25:32;;;;;;;5.60;5.10;;;20.10;66.30;;;;;;5003595;28;20495;-68
2022/11/29 06:28:27;;;;;;;5.87;5.47;;;20.10;66.10;;;;;;5005838;28;20552;-73
2022/11/29 06:31:02;;;;;;;6.20;5.60;;;20.20;66.10;;;;;;5010010;28;20454;-68
2022/11/29 06:33:39;;;;;;;7.23;5.30;;;20.10;66.00;;;;;;5006304;28;20467;-71
2022/11/29 06:36:17;;;;;;;7.03;5.73;;;20.10;65.80;;;;;;5001784;28;20455;-69
2022/11/29 06:38:46;;;;;;;6.73;6.00;;;20.10;65.80;;;;;;5004515;28;20921;-70
2022/11/29 06:41:19;;;;;;;5.90;5.30;;;20.10;65.70;;;;;;5006117;28;20457;-68
2022/11/29 06:43:48;;;;;;;6.97;5.30;;;20.10;65.60;;;;;;5006376;28;20468;-72
2022/11/29 06:46:25;;;;;;;9.37;6.60;;;20.10;65.60;;;;;;5007517;28;20461;-69
2022/11/29 06:49:01;;;;;;;8.77;6.03;;;20.10;65.60;;;;;;5005177;28;20928;-70
2022/11/29 06:51:40;;;;;;;7.57;5.17;;;20.10;65.60;;;;;;5006939;28;20561;-70
2022/11/29 06:54:28;;;;;;;8.17;5.20;;;20.10;65.60;;;;;;5005198;28;20473;-68
2022/11/29 06:57:06;;;;;;;5.87;5.30;;;20.10;65.60;;;;;;5000435;28;20462;-70
2022/11/29 06:59:47;;;;;;;14.27;7.60;;;20.10;65.60;;;;;;4999855;28;20578;-68
2022/11/29 07:02:36;;;;;;;12.43;9.40;;;20.10;70.10;;;;;;5004350;28;20550;-68
2022/11/29 07:05:14;;;;;;;13.80;7.63;;;20.10;73.10;;;;;;5002824;28;20496;-68
2022/11/29 07:07:45;;;;;;;8.77;7.87;;;20.10;72.80;;;;;;5003460;28;20493;-69
2022/11/29 07:10:16;;;;;;;8.67;6.90;;;20.20;72.60;;;;;;5003427;28;20827;-68
2022/11/29 07:12:45;;;;;;;7.30;6.30;;;20.20;72.20;;;;;;5002469;28;20572;-70
2022/11/29 07:15:15;;;;;;;7.73;6.57;;;20.20;72.10;;;;;;5000610;28;20532;-69
2022/11/29 07:17:52;;;;;;;11.13;6.73;;;20.20;71.70;;;;;;5003954;28;21095;-73
2022/11/29 07:20:32;;;;;;;9.63;6.40;;;20.20;71.60;;;;;;5008358;28;20546;-68
2022/11/29 07:23:11;;;;;;;6.73;6.03;;;20.20;71.50;;;;;;5003736;28;20588;-70
2022/11/29 07:25:49;;;;;;;9.97;6.40;;;20.20;71.70;;;;;;5006567;28;20482;-68
2022/11/29 07:28:29;;;;;;;8.47;6.23;;;20.20;71.80;;;;;;5006615;28;20934;-69
2022/11/29 07:31:05;;;;;;;7.30;6.60;;;20.20;71.60;;;;;;4995724;28;20931;-68
2022/11/29 07:33:49;;;;;;;6.30;5.70;;;20.20;71.50;;;;;;5000905;28;20458;-69
2022/11/29 07:36:25;;;;;;;7.90;6.50;;;20.20;71.30;;;;;;4997168;28;21444;-69
2022/11/29 07:39:11;;;;;;;9.17;6.07;;;20.20;70.90;;;;;;5001759;28;20524;-69
2022/11/29 07:41:47;;;;;;;6.67;5.97;;;20.20;70.80;;;;;;4995368;28;20460;-68
2022/11/29 07:44:29;;;;;;;10.77;6.97;;;20.30;70.90;;;;;;4977350;28;20551;-71
2022/11/29 07:46:57;;;;;;;6.73;6.00;;;20.20;71.20;;;;;;5000888;28;20457;-67
2022/11/29 07:49:25;;;;;;;6.70;6.00;;;20.30;71.10;;;;;;5000421;28;20503;-67
2022/11/29 07:51:54;;;;;;;5.80;5.27;;;20.30;71.30;;;;;;5002917;28;20516;-68
2022/11/29 07:54:24;;;;;;;6.77;5.90;;;20.30;71.40;;;;;;5006233;28;20603;-67
2022/11/29 07:56:52;;;;;;;6.17;5.47;;;20.30;71.40;;;;;;5003523;28;21090;-68
2022/11/29 07:59:20;;;;;;;5.63;5.23;;;20.30;71.50;;;;;;5005255;28;20636;-68
2022/11/29 08:01:48;;;;;;;7.20;5.53;;;20.30;71.50;;;;;;5006330;28;20491;-69
2022/11/29 08:04:17;;;;;;;7.60;5.17;;;20.30;71.50;;;;;;5006235;28;20935;-67
2022/11/29 08:06:45;;;;;;;6.47;5.87;;;20.30;71.40;;;;;;5006439;28;20503;-71
2022/11/29 08:09:13;;;;;;;8.17;5.30;;;20.40;71.30;;;;;;5002342;28;20524;-67
2022/11/29 08:11:43;;;;;;;6.53;5.93;;;20.40;71.10;;;;;;5000872;28;20527;-68
2022/11/29 08:14:11;;;;;;;5.63;5.07;;;20.40;71.10;;;;;;4999546;28;20491;-68
2022/11/29 08:16:40;;;;;;;7.20;5.73;;;20.40;71.10;;;;;;5001874;28;20566;-67
2022/11/29 08:19:08;;;;;;;6.43;5.73;;;20.40;70.90;;;;;;5006939;28;20475;-71
2022/11/29 08:21:36;;;;;;;5.20;4.67;;;20.40;70.90;;;;;;4998776;28;20500;-68
2022/11/29 08:24:05;;;;;;;6.80;4.93;;;20.50;70.80;;;;;;5002142;28;20530;-68
2022/11/29 08:26:34;;;;;;;6.80;6.17;;;20.50;70.60;;;;;;5003216;28;20519;-68
2022/11/29 08:29:03;;;;;;;7.70;5.77;;;20.50;70.50;;;;;;4999226;28;20468;-68
2022/11/29 08:31:31;;;;;;;5.73;5.23;;;20.50;70.30;;;;;;5004059;28;20474;-68
2022/11/29 08:34:00;;;;;;;6.50;5.53;;;20.50;70.30;;;;;;5002797;28;20464;-67
2022/11/29 08:36:28;;;;;;;6.13;5.53;;;20.50;70.20;;;;;;5004348;28;20568;-68
2022/11/29 08:38:56;;;;;;;5.50;5.10;;;20.50;70.20;;;;;;5004369;28;20467;-69
2022/11/29 08:41:36;;;;;;;7.13;5.60;;;20.60;70.20;;;;;;5011246;28;20485;-72
2022/11/29 08:44:06;;;;;;;6.60;5.60;;;20.60;70.00;;;;;;5007323;28;20463;-68
2022/11/29 08:49:21;;;;;;;5.20;4.70;;;20.60;69.90;;;;;;5006555;28;20504;-68
2022/11/29 08:51:52;;;;;;;6.80;5.00;;;20.60;69.80;;;;;;5010554;28;20998;-69
2022/11/29 08:54:19;;;;;;;6.00;5.40;;;20.60;69.80;;;;;;5004633;28;20504;-68
2022/11/29 08:56:47;;;;;;;6.33;5.73;;;20.60;69.80;;;;;;5003552;28;20472;-69
2022/11/29 08:59:36;;;;;;;6.40;5.90;;;20.60;69.70;;;;;;5011673;28;20459;-72
2022/11/29 09:02:05;;;;;;;4.70;4.30;;;20.60;69.70;;;;;;5007464;28;20466;-68
2022/11/29 09:04:33;;;;;;;8.00;5.70;;;20.60;69.60;;;;;;5009807;28;20466;-68
2022/11/29 09:07:01;;;;;;;7.27;5.80;;;20.60;69.50;;;;;;5011467;28;20571;-69
2022/11/29 09:09:29;;;;;;;6.50;5.57;;;20.60;69.50;;;;;;5004070;28;20465;-68
2022/11/29 09:11:57;;;;;;;6.13;5.40;;;20.60;69.50;;;;;;5009983;28;21389;-70
2022/11/29 09:14:26;;;;;;;5.60;5.10;;;20.70;69.40;;;;;;5009749;28;20503;-69
2022/11/29 09:16:55;;;;;;;7.23;6.50;;;20.70;69.30;;;;;;5008192;28;20572;-67
2022/11/29 09:19:24;;;;;;;5.83;5.20;;;20.70;69.30;;;;;;5010736;28;21064;-67
2022/11/29 09:21:55;;;;;;;5.47;4.50;;;20.70;69.30;;;;;;5009251;28;20453;-69
2022/11/29 09:24:23;;;;;;;5.53;5.03;;;20.70;69.20;;;;;;5006534;28;20548;-69
2022/11/29 09:26:51;;;;;;;4.97;4.57;;;20.70;69.20;;;;;;5008021;28;20555;-68
2022/11/29 09:29:20;;;;;;;5.70;5.20;;;20.70;69.20;;;;;;5006520;28;20488;-69
2022/11/29 09:31:48;;;;;;;4.77;4.37;;;20.70;69.20;;;;;;5008243;28;20559;-68
2022/11/29 09:34:18;;;;;;;5.13;4.67;;;20.70;69.10;;;;;;5008012;28;20459;-69
2022/11/29 09:36:47;;;;;;;7.23;4.70;;;20.70;69.00;;;;;;5008643;28;20563;-68
2022/11/29 09:39:15;;;;;;;6.80;4.87;;;20.70;69.00;;;;;;5002832;28;20463;-68
2022/11/29 09:42:08;;;;;;;5.10;4.70;;;20.70;68.90;;;;;;5007409;28;20521;-72
2022/11/29 09:44:48;;;;;;;4.97;4.47;;;20.70;68.70;;;;;;5004328;28;20870;-67
2022/11/29 09:47:31;;;;;;;5.60;4.90;;;20.70;68.60;;;;;;5006208;28;20573;-67
2022/11/29 09:50:18;;;;;;;6.07;5.47;;;20.70;68.60;;;;;;5004400;28;20466;-67
2022/11/29 09:52:55;;;;;;;5.07;4.67;;;20.70;68.50;;;;;;5004472;28;20503;-67
2022/11/29 09:55:35;;;;;;;6.67;4.80;;;20.70;68.60;;;;;;5010474;28;20471;-70
2022/11/29 09:58:05;;;;;;;6.43;4.70;;;20.70;68.90;;;;;;5008047;28;20550;-69
2022/11/29 10:00:43;;;;;;;5.23;4.83;;;20.70;68.90;;;;;;5004063;28;20523;-70
2022/11/29 10:03:18;;;;;;;5.07;4.57;;;20.70;68.90;;;;;;5008281;28;20468;-68
2022/11/29 10:05:51;;;;;;;4.60;4.20;;;20.70;69.00;;;;;;5008651;28;20556;-65
2022/11/29 10:08:27;;;;;;;4.43;4.13;;;20.70;69.00;;;;;;5010056;28;20502;-70
2022/11/29 10:11:03;;;;;;;5.13;4.50;;;20.70;68.90;;;;;;5010679;28;20990;-72
2022/11/29 10:13:35;;;;;;;7.93;5.33;;;20.70;68.90;;;;;;5002628;28;20879;-69
2022/11/29 10:16:11;;;;;;;6.73;4.63;;;20.70;68.90;;;;;;5006142;28;20515;-69
2022/11/29 10:18:48;;;;;;;5.50;5.00;;;20.70;68.90;;;;;;5007326;28;20474;-70
2022/11/29 10:21:22;;;;;;;5.93;4.77;;;20.70;69.00;;;;;;5002851;28;21086;-70
2022/11/29 10:23:54;;;;;;;4.67;4.27;;;20.80;69.00;;;;;;5008939;28;20590;-66
2022/11/29 10:26:23;;;;;;;4.70;4.30;;;20.80;68.90;;;;;;5008396;28;20545;-69
2022/11/29 10:28:56;;;;;;;4.33;3.80;;;20.80;68.90;;;;;;5005208;28;20459;-70
2022/11/29 10:31:27;;;;;;;4.77;4.33;;;20.80;68.90;;;;;;5006764;28;20494;-71
2022/11/29 10:33:59;;;;;;;4.40;3.93;;;20.80;68.90;;;;;;5007278;28;20468;-70
2022/11/29 10:36:34;;;;;;;10.00;5.07;;;20.80;68.90;;;;;;5004625;28;20521;-76
2022/11/29 10:39:06;;;;;;;3.63;3.33;;;20.80;68.80;;;;;;5009492;28;20462;-82
2022/11/29 10:41:41;;;;;;;5.20;4.70;;;20.80;68.40;;;;;;5005516;28;20533;-81
2022/11/29 10:44:13;;;;;;;5.80;4.70;;;20.80;67.90;;;;;;5003191;28;20469;-83
2022/11/29 10:46:41;;;;;;;4.50;4.13;;;20.80;67.60;;;;;;5009345;28;20505;-76
2022/11/29 10:49:13;;;;;;;5.43;4.60;;;20.80;67.40;;;;;;5006950;28;20946;-77
2022/11/29 10:51:43;;;;;;;4.40;4.10;;;20.80;67.30;;;;;;5002319;28;20494;-83
2022/11/29 10:54:24;;;;;;;4.20;3.90;;;20.70;67.10;;;;;;4998695;28;20495;-76
2022/11/29 10:56:53;;;;;;;5.30;4.20;;;20.70;67.10;;;;;;5008072;28;20565;-82
2022/11/29 10:59:23;;;;;;;6.23;4.20;;;20.70;66.80;;;;;;5005227;28;20849;-72
2022/11/29 11:01:51;;;;;;;5.73;5.20;;;20.70;66.80;;;;;;5003639;28;20970;-73
2022/11/29 11:04:28;;;;;;;4.30;3.93;;;20.70;66.70;;;;;;4999518;28;20579;-70
2022/11/29 11:07:01;;;;;;;4.00;3.70;;;20.70;67.30;;;;;;5008403;28;21019;-72
2022/11/29 11:09:34;;;;;;;5.00;4.50;;;20.70;67.70;;;;;;5010303;28;20459;-72
2022/11/29 11:12:05;;;;;;;6.90;4.40;;;20.70;67.80;;;;;;5006924;28;20541;-72
2022/11/29 11:14:36;;;;;;;5.23;4.33;;;20.70;67.80;;;;;;5004338;28;20566;-72
2022/11/29 11:17:24;;;;;;;5.67;5.17;;;20.70;67.90;;;;;;5003530;28;20491;-73
2022/11/29 11:19:59;;;;;;;4.47;4.07;;;20.70;68.00;;;;;;5005527;28;20458;-71
2022/11/29 11:22:31;;;;;;;4.30;4.00;;;20.70;68.10;;;;;;5006090;28;20455;-68
2022/11/29 11:25:01;;;;;;;5.10;4.10;;;20.70;68.00;;;;;;5008277;28;20498;-72
2022/11/29 11:27:32;;;;;;;4.37;3.90;;;20.80;68.00;;;;;;5008360;28;20463;-68
2022/11/29 11:30:02;;;;;;;4.80;4.00;;;20.80;68.00;;;;;;5005057;28;20491;-72
2022/11/29 11:32:31;;;;;;;4.63;4.07;;;20.80;67.90;;;;;;5005451;28;20475;-72
2022/11/29 11:35:00;;;;;;;4.40;4.00;;;20.80;67.90;;;;;;5005093;28;20883;-71
2022/11/29 11:37:32;;;;;;;4.30;4.00;;;20.80;67.90;;;;;;5006363;28;20505;-70
2022/11/29 11:40:18;;;;;;;4.00;3.70;;;20.80;67.90;;;;;;5003978;28;20522;-69
2022/11/29 11:42:47;;;;;;;5.17;4.00;;;20.80;68.00;;;;;;5008260;28;20464;-72
2022/11/29 11:45:32;;;;;;;4.30;3.90;;;20.90;68.00;;;;;;5005369;28;20537;-69
2022/11/29 11:48:04;;;;;;;4.20;3.90;;;20.90;68.00;;;;;;5001987;28;20526;-70
2022/11/29 11:50:35;;;;;;;4.60;4.17;;;20.90;67.90;;;;;;5002671;28;20456;-71
2022/11/29 11:53:17;;;;;;;5.20;3.67;;;20.90;67.90;;;;;;5004601;28;20496;-69
2022/11/29 11:55:55;;;;;;;3.90;3.60;;;20.90;67.90;;;;;;5001971;28;20550;-68
2022/11/29 11:58:26;;;;;;;4.40;4.00;;;20.90;67.90;;;;;;5003886;28;20523;-71
2022/11/29 12:00:57;;;;;;;4.23;3.83;;;20.90;67.90;;;;;;5004155;28;20982;-71
2022/11/29 12:03:39;;;;;;;5.20;4.70;;;20.90;67.90;;;;;;5000732;28;20813;-76
2022/11/29 12:06:42;;;;;;;4.00;3.70;;;20.90;67.80;;;;;;5003885;28;20816;-77
2022/11/29 12:09:25;;;;;;;3.57;3.27;;;20.90;67.80;;;;;;4956784;28;20590;-71
2022/11/29 12:12:00;;;;;;;7.70;3.43;;;20.90;67.70;;;;;;5008656;28;20449;-77
2022/11/29 12:14:42;;;;;;;4.10;3.77;;;21.00;67.50;;;;;;5005082;28;20517;-74
2022/11/29 12:17:19;;;;;;;4.47;3.50;;;21.00;67.40;;;;;;5006200;28;20477;-74
2022/11/29 12:20:00;;;;;;;3.47;3.17;;;21.00;67.50;;;;;;5004502;28;20882;-73
2022/11/29 12:22:35;;;;;;;3.87;3.57;;;21.00;67.40;;;;;;5009132;28;21388;-72
2022/11/29 12:25:12;;;;;;;6.60;3.23;;;21.00;67.40;;;;;;5001225;28;21019;-73
2022/11/29 12:27:40;;;;;;;3.93;3.63;;;21.00;67.20;;;;;;5010663;28;20498;-71
2022/11/29 12:30:13;;;;;;;8.00;3.67;;;21.00;67.20;;;;;;5007754;28;20470;-72
2022/11/29 12:33:03;;;;;;;3.73;3.43;;;21.00;67.20;;;;;;5004210;28;20460;-74
2022/11/29 12:36:04;;;;;;;5.43;4.33;;;21.00;67.10;;;;;;5007545;28;20863;-76
2022/11/29 12:38:53;;;;;;;3.10;2.90;;;21.00;67.00;;;;;;5005888;28;20952;-74
2022/11/29 12:41:35;;;;;;;8.27;3.70;;;21.00;67.00;;;;;;5007953;28;20538;-69
2022/11/29 12:44:15;;;;;;;3.47;3.20;;;21.00;67.10;;;;;;5005030;28;20472;-74
2022/11/29 12:46:49;;;;;;;3.60;3.40;;;21.00;66.90;;;;;;5006703;28;20493;-71
2022/11/29 12:49:39;;;;;;;3.80;3.50;;;21.00;66.80;;;;;;5006074;28;20452;-73
2022/11/29 12:52:15;;;;;;;2.83;2.63;;;21.00;66.70;;;;;;5012990;28;20979;-73
2022/11/29 12:54:58;;;;;;;3.30;2.70;;;21.00;66.60;;;;;;5010800;28;20483;-73
2022/11/29 12:57:42;;;;;;;3.43;2.80;;;21.00;66.50;;;;;;5006326;28;20489;-74
2022/11/29 13:00:13;;;;;;;2.97;2.77;;;21.00;66.30;;;;;;5011011;28;20470;-72
2022/11/29 13:02:52;;;;;;;3.43;3.13;;;21.00;66.30;;;;;;5010723;28;20521;-73
2022/11/29 13:05:36;;;;;;;4.90;3.70;;;21.00;66.30;;;;;;5009066;28;20459;-73
2022/11/29 13:08:23;;;;;;;3.33;3.07;;;21.00;66.30;;;;;;5003823;28;20888;-73
2022/11/29 13:11:04;;;;;;;4.67;3.17;;;20.90;66.40;;;;;;5008369;28;20503;-72
2022/11/29 13:13:39;;;;;;;3.70;3.40;;;20.90;66.50;;;;;;5009767;28;20466;-73
2022/11/29 13:16:23;;;;;;;4.77;3.97;;;20.90;66.60;;;;;;4991900;28;20459;-73
2022/11/29 13:19:04;;;;;;;4.17;3.87;;;20.90;66.80;;;;;;5005982;28;20472;-73
2022/11/29 13:21:38;;;;;;;7.97;3.63;;;20.90;66.90;;;;;;5002535;28;20785;-70
2022/11/29 13:24:10;;;;;;;4.77;3.60;;;20.90;67.00;;;;;;5005187;28;20541;-73
2022/11/29 13:26:39;;;;;;;3.47;3.20;;;20.90;67.10;;;;;;5002651;28;20452;-70
2022/11/29 13:29:14;;;;;;;4.53;3.47;;;20.90;67.10;;;;;;4999396;28;20563;-72
2022/11/29 13:31:43;;;;;;;3.63;3.20;;;20.80;67.20;;;;;;5003107;28;20503;-72
2022/11/29 13:34:16;;;;;;;3.83;3.53;;;20.80;67.30;;;;;;5000180;28;20584;-65
2022/11/29 13:36:53;;;;;;;4.63;3.40;;;20.80;67.40;;;;;;5002172;28;20491;-65
2022/11/29 13:39:43;;;;;;;4.00;2.90;;;20.80;67.80;;;;;;5003051;28;20617;-65